Terminal Aerodrome Forecast
Issued by NWS Wilmington, OH

Current Version | Previous Version | Graphics & Text | Print | Product List | Glossary On
Versions: 1 2 3 4 5 6 7 8 9 10 11 12 13 14 15 16 17 18 19 20 21 22 23 24 25 26 27 28 29 30 31 32 33
998
FTUS41 KILN 301506 AAB
TAFCVG
TAF AMD
KCVG 301506Z 3015/0118 09008KT 4SM -SHRA BR OVC035
     FM301800 11012G19KT 2SM -SHRA BR OVC015
     FM010000 19010KT 4SM BR VCSH BKN008
     FM010600 19008KT 5SM BR VCSH OVC015
     FM011200 20006KT 5SM BR OVC015=

USA.gov is the U.S. government's official web portal to all federal, state and local government web resources and services.